Time;durP1;ratioP1;P1;durP2;ratioP2;P2;SDS_P1;SDS_P2;PMS_P1;PMS_P2;Temp;Humidity;BMP_temperature;BMP_pressure;BME280_temperature;BME280_humidity;BME280_pressure;Samples;Min_cycle;Max_cycle;Signal;HPM_P1;HPM_P2
2023/10/09 00:01:57;;;;;;;9.67;2.10;;;;;;;;;;5026315;28;20781;-79
2023/10/09 00:04:28;;;;;;;4.40;1.57;;;;;;;;;;5026797;28;20452;-79
2023/10/09 00:06:59;;;;;;;3.33;1.50;;;;;;;;;;5023947;28;20459;-77
2023/10/09 00:09:40;;;;;;;5.83;1.87;;;;;;;;;;5024405;28;20954;-78
2023/10/09 00:12:10;;;;;;;5.00;1.60;;;;;;;;;;5046576;22;20481;-76
2023/10/09 00:14:38;;;;;;;5.47;1.90;;;;;;;;;;5037954;28;20560;-76
2023/10/09 00:17:17;;;;;;;3.70;1.73;;;;;;;;;;5035893;28;20521;-76
2023/10/09 00:19:47;;;;;;;8.17;1.77;;;;;;;;;;5035567;28;20783;-77
2023/10/09 00:22:30;;;;;;;4.70;1.50;;;;;;;;;;5035168;28;20447;-76
2023/10/09 00:25:11;;;;;;;5.30;1.50;;;;;;;;;;5035895;28;20454;-77
2023/10/09 00:27:42;;;;;;;4.27;1.60;;;;;;;;;;5034763;28;20744;-77
2023/10/09 00:30:11;;;;;;;6.93;1.60;;;;;;;;;;5037720;28;20474;-74
2023/10/09 00:32:51;;;;;;;4.73;1.33;;;;;;;;;;5036443;28;20458;-75
2023/10/09 00:35:41;;;;;;;5.50;1.40;;;;;;;;;;5037793;28;20803;-77
2023/10/09 00:38:23;;;;;;;4.83;1.90;;;;;;;;;;5036191;28;20450;-76
2023/10/09 00:41:03;;;;;;;8.17;2.50;;;;;;;;;;5038388;28;20461;-76
2023/10/09 00:43:31;;;;;;;4.23;1.57;;;;;;;;;;5039048;28;20525;-77
2023/10/09 00:46:02;;;;;;;4.50;1.73;;;;;;;;;;5038894;28;20723;-76
2023/10/09 00:48:39;;;;;;;5.27;1.30;;;;;;;;;;5038432;28;20880;-76
2023/10/09 00:51:15;;;;;;;5.23;1.97;;;;;;;;;;5038486;28;20464;-75
2023/10/09 00:53:45;;;;;;;3.73;1.63;;;;;;;;;;5036921;28;20820;-76
2023/10/09 00:56:21;;;;;;;6.20;2.10;;;;;;;;;;5035379;28;20806;-76
2023/10/09 00:58:55;;;;;;;4.00;1.53;;;;;;;;;;5035536;28;20446;-78
2023/10/09 01:01:27;;;;;;;4.10;1.80;;;;;;;;;;5037890;28;20516;-78
2023/10/09 01:03:56;;;;;;;5.30;2.23;;;;;;;;;;5036021;28;20459;-77
2023/10/09 01:06:28;;;;;;;4.87;1.60;;;;;;;;;;5038901;28;20463;-77
2023/10/09 01:09:09;;;;;;;9.67;2.87;;;;;;;;;;5036747;28;21073;-76
2023/10/09 01:11:47;;;;;;;8.43;1.73;;;;;;;;;;5038348;28;20509;-76
2023/10/09 01:14:14;;;;;;;4.80;1.83;;;;;;;;;;5037417;28;20826;-77
2023/10/09 01:16:43;;;;;;;5.30;2.10;;;;;;;;;;5037284;28;20477;-77
2023/10/09 01:19:23;;;;;;;4.87;2.20;;;;;;;;;;5039108;28;20554;-76
2023/10/09 01:21:51;;;;;;;5.23;2.47;;;;;;;;;;5038913;28;20472;-77
2023/10/09 01:24:22;;;;;;;7.50;1.93;;;;;;;;;;5038461;28;20539;-76
2023/10/09 01:26:54;;;;;;;7.17;2.70;;;;;;;;;;5039342;28;20548;-77
2023/10/09 01:29:23;;;;;;;6.23;2.70;;;;;;;;;;5037344;28;20864;-78
2023/10/09 01:31:55;;;;;;;6.93;1.70;;;;;;;;;;5040685;28;20458;-78
2023/10/09 01:34:38;;;;;;;5.20;1.80;;;;;;;;;;5037458;28;20936;-78
2023/10/09 01:37:11;;;;;;;6.80;1.97;;;;;;;;;;5040022;28;20454;-77
2023/10/09 01:39:42;;;;;;;8.03;1.60;;;;;;;;;;5041081;28;20468;-77
2023/10/09 01:42:10;;;;;;;4.50;1.63;;;;;;;;;;5040094;28;20453;-77
2023/10/09 01:44:43;;;;;;;5.60;3.00;;;;;;;;;;5042204;28;20454;-77
2023/10/09 01:47:31;;;;;;;8.23;2.67;;;;;;;;;;5041898;28;20473;-76
2023/10/09 01:49:58;;;;;;;4.73;1.60;;;;;;;;;;5039467;28;20536;-78
2023/10/09 01:52:27;;;;;;;6.03;1.83;;;;;;;;;;5040738;28;20442;-77
2023/10/09 01:55:06;;;;;;;6.73;2.07;;;;;;;;;;5039614;28;20482;-78
2023/10/09 01:57:34;;;;;;;7.50;2.00;;;;;;;;;;5039888;28;20878;-76
2023/10/09 02:00:07;;;;;;;4.90;1.87;;;;;;;;;;5041274;28;20458;-76
2023/10/09 02:02:35;;;;;;;9.37;2.10;;;;;;;;;;5041767;28;20462;-78
2023/10/09 02:05:09;;;;;;;6.83;2.93;;;;;;;;;;5042151;28;20854;-77
2023/10/09 02:07:44;;;;;;;6.77;2.17;;;;;;;;;;5040912;28;20543;-77
2023/10/09 02:10:32;;;;;;;6.67;1.80;;;;;;;;;;5040205;28;20533;-75
2023/10/09 02:13:06;;;;;;;5.17;1.80;;;;;;;;;;5001807;28;20463;-75
2023/10/09 02:18:39;;;;;;;3.30;1.53;;;;;;;;;;4985720;28;20436;-77
2023/10/09 02:21:14;;;;;;;6.23;1.70;;;;;;;;;;5001921;28;20732;-75
2023/10/09 02:23:46;;;;;;;5.17;1.80;;;;;;;;;;4999161;28;20525;-76
2023/10/09 02:26:19;;;;;;;4.93;2.23;;;;;;;;;;5000218;28;20559;-76
2023/10/09 02:28:52;;;;;;;4.97;2.10;;;;;;;;;;4998144;28;20477;-77
2023/10/09 02:31:22;;;;;;;5.90;1.77;;;;;;;;;;5001071;28;20456;-77
2023/10/09 02:33:53;;;;;;;3.50;1.50;;;;;;;;;;5001334;28;20470;-76
2023/10/09 02:36:20;;;;;;;4.37;1.87;;;;;;;;;;4999788;28;20460;-76
2023/10/09 02:38:48;;;;;;;3.70;1.80;;;;;;;;;;5000653;28;20457;-77
2023/10/09 02:41:27;;;;;;;4.60;1.70;;;;;;;;;;5000857;28;20452;-76
2023/10/09 02:43:56;;;;;;;4.40;1.60;;;;;;;;;;4999202;28;20456;-75
2023/10/09 02:46:34;;;;;;;6.63;2.63;;;;;;;;;;5000789;28;20448;-75
2023/10/09 02:49:06;;;;;;;5.63;2.00;;;;;;;;;;4999309;28;20466;-76
2023/10/09 02:51:36;;;;;;;3.70;1.50;;;;;;;;;;4999507;28;20904;-76
2023/10/09 02:54:27;;;;;;;5.80;2.03;;;;;;;;;;5000814;28;20495;-76
2023/10/09 02:57:06;;;;;;;5.00;1.80;;;;;;;;;;4999484;28;20471;-77
2023/10/09 02:59:33;;;;;;;4.73;1.63;;;;;;;;;;4999776;28;20744;-74
2023/10/09 03:02:01;;;;;;;4.70;1.37;;;;;;;;;;5000407;28;20542;-76
2023/10/09 03:04:31;;;;;;;6.93;2.07;;;;;;;;;;4998747;28;20899;-75
2023/10/09 03:06:58;;;;;;;5.03;2.13;;;;;;;;;;4999666;28;20539;-75
2023/10/09 03:09:31;;;;;;;5.90;1.90;;;;;;;;;;4997931;28;20491;-76
2023/10/09 03:12:03;;;;;;;4.10;1.30;;;;;;;;;;5000967;28;20483;-76
2023/10/09 03:14:30;;;;;;;8.40;2.17;;;;;;;;;;5000351;28;20527;-75
2023/10/09 03:16:58;;;;;;;4.77;1.67;;;;;;;;;;5002506;28;20482;-76
2023/10/09 03:19:26;;;;;;;5.10;1.57;;;;;;;;;;5000422;28;20457;-75
2023/10/09 03:21:53;;;;;;;5.83;2.07;;;;;;;;;;4998635;28;20925;-76
2023/10/09 03:24:22;;;;;;;7.50;1.87;;;;;;;;;;4998855;28;20935;-76
2023/10/09 03:26:49;;;;;;;4.90;1.43;;;;;;;;;;5000392;28;20745;-75
2023/10/09 03:29:20;;;;;;;5.83;1.90;;;;;;;;;;5001289;28;20947;-76
2023/10/09 03:31:46;;;;;;;3.67;1.40;;;;;;;;;;4999178;28;20491;-76
2023/10/09 03:34:14;;;;;;;5.77;3.77;;;;;;;;;;4997095;28;20904;-74
2023/10/09 03:36:43;;;;;;;4.17;1.47;;;;;;;;;;4997287;28;20460;-77
2023/10/09 03:39:24;;;;;;;4.13;2.00;;;;;;;;;;4997186;28;20868;-75
2023/10/09 03:41:54;;;;;;;4.03;1.73;;;;;;;;;;4998317;28;20460;-75
2023/10/09 03:44:22;;;;;;;3.90;1.80;;;;;;;;;;4998163;28;20448;-75
2023/10/09 03:46:51;;;;;;;8.50;2.50;;;;;;;;;;4997586;28;20449;-76
2023/10/09 03:49:23;;;;;;;4.97;2.03;;;;;;;;;;4997458;28;20622;-76
2023/10/09 03:51:51;;;;;;;3.80;1.63;;;;;;;;;;5000217;28;20466;-75
2023/10/09 03:54:20;;;;;;;4.90;1.80;;;;;;;;;;4998718;28;20880;-76
2023/10/09 03:56:49;;;;;;;5.73;1.87;;;;;;;;;;4999990;28;20519;-76
2023/10/09 03:59:17;;;;;;;4.40;1.87;;;;;;;;;;4999587;28;20606;-75
2023/10/09 04:01:48;;;;;;;4.93;1.50;;;;;;;;;;4999857;28;20882;-76
2023/10/09 04:04:15;;;;;;;4.23;1.43;;;;;;;;;;5000096;28;20487;-75
2023/10/09 04:06:43;;;;;;;4.63;1.67;;;;;;;;;;5000396;28;20554;-75
2023/10/09 04:09:27;;;;;;;4.10;1.60;;;;;;;;;;4998121;28;20456;-75
2023/10/09 04:12:19;;;;;;;5.00;1.57;;;;;;;;;;4997474;28;20496;-76
2023/10/09 04:14:50;;;;;;;10.73;2.77;;;;;;;;;;4997474;28;20487;-76
2023/10/09 04:17:34;;;;;;;5.60;1.60;;;;;;;;;;4997237;28;20470;-76
2023/10/09 04:20:50;;;;;;;8.60;1.60;;;;;;;;;;4996153;28;20559;-76
2023/10/09 04:23:16;;;;;;;6.70;2.33;;;;;;;;;;4997975;28;20452;-75
2023/10/09 04:25:50;;;;;;;4.70;1.77;;;;;;;;;;4997369;28;20691;-76
2023/10/09 04:28:22;;;;;;;7.90;2.57;;;;;;;;;;4997110;28;20504;-76
2023/10/09 04:30:55;;;;;;;4.77;1.50;;;;;;;;;;4997111;28;20745;-76
2023/10/09 04:33:40;;;;;;;5.00;2.17;;;;;;;;;;5000293;28;20460;-76
2023/10/09 04:36:21;;;;;;;4.97;1.70;;;;;;;;;;4990848;28;20943;-75
2023/10/09 04:39:15;;;;;;;6.40;1.90;;;;;;;;;;4999617;28;20575;-76
2023/10/09 04:44:29;;;;;;;9.50;2.10;;;;;;;;;;4992065;28;20849;-75
2023/10/09 04:49:49;;;;;;;8.53;2.20;;;;;;;;;;4993258;28;20491;-76
2023/10/09 04:52:19;;;;;;;6.33;1.90;;;;;;;;;;4993898;28;20791;-76
2023/10/09 04:57:29;;;;;;;4.30;1.73;;;;;;;;;;4994166;28;20462;-76
2023/10/09 04:59:58;;;;;;;4.00;1.40;;;;;;;;;;4992168;28;20456;-76
2023/10/09 05:02:36;;;;;;;4.50;2.00;;;;;;;;;;4994870;28;20448;-74
2023/10/09 05:05:17;;;;;;;5.77;2.07;;;;;;;;;;4994505;28;20448;-75
2023/10/09 05:07:54;;;;;;;10.20;2.03;;;;;;;;;;4995622;28;20452;-75
2023/10/09 05:10:25;;;;;;;3.87;1.40;;;;;;;;;;4995332;28;21041;-76
2023/10/09 05:12:56;;;;;;;5.07;1.77;;;;;;;;;;5012919;28;20478;-74
2023/10/09 05:15:29;;;;;;;4.20;1.83;;;;;;;;;;5015983;28;20510;-76
2023/10/09 05:17:56;;;;;;;3.63;1.53;;;;;;;;;;5013888;28;20463;-76
2023/10/09 05:23:25;;;;;;;5.90;1.70;;;;;;;;;;5009716;28;20532;-74
2023/10/09 05:25:55;;;;;;;4.73;1.57;;;;;;;;;;5014160;28;20752;-75
2023/10/09 05:28:30;;;;;;;3.40;1.63;;;;;;;;;;5010578;28;20463;-75
2023/10/09 05:31:06;;;;;;;4.90;1.60;;;;;;;;;;5009779;28;20714;-75
2023/10/09 05:33:36;;;;;;;4.13;1.60;;;;;;;;;;5013075;28;20721;-75
2023/10/09 05:36:17;;;;;;;4.07;1.80;;;;;;;;;;5009580;28;20589;-75
2023/10/09 05:38:58;;;;;;;8.90;1.93;;;;;;;;;;5007586;28;20875;-75
2023/10/09 05:41:45;;;;;;;6.17;1.50;;;;;;;;;;5010073;28;20451;-75
2023/10/09 05:50:02;;;;;;;6.27;1.73;;;;;;;;;;5010040;28;20481;-75
2023/10/09 05:55:48;;;;;;;4.70;1.77;;;;;;;;;;5008703;28;20493;-75
2023/10/09 06:02:17;;;;;;;4.53;1.60;;;;;;;;;;5014087;28;20582;-75
2023/10/09 06:04:12;;;;;;;7.10;1.87;;;;;;;;;;5012817;28;20451;-75
2023/10/09 06:06:44;;;;;;;5.97;2.00;;;;;;;;;;5012053;28;20481;-75
2023/10/09 06:17:59;;;;;;;5.30;2.60;;;;;;;;;;5035235;28;20454;-75
2023/10/09 06:21:06;;;;;;;5.03;1.97;;;;;;;;;;5028786;28;20542;-75
2023/10/09 06:26:25;;;;;;;9.33;1.93;;;;;;;;;;5030080;28;20433;-75
2023/10/09 06:29:14;;;;;;;8.00;2.60;;;;;;;;;;5029865;28;21048;-75
2023/10/09 06:34:32;;;;;;;7.03;2.90;;;;;;;;;;4992997;28;20742;-75
2023/10/09 06:37:05;;;;;;;6.33;2.53;;;;;;;;;;5031827;28;20446;-74
2023/10/09 06:42:33;;;;;;;6.73;2.57;;;;;;;;;;4989109;28;20523;-74
2023/10/09 06:45:11;;;;;;;7.13;2.20;;;;;;;;;;5026009;28;20454;-75
2023/10/09 06:47:41;;;;;;;6.87;3.60;;;;;;;;;;5028055;28;20520;-75
2023/10/09 06:50:24;;;;;;;4.73;2.53;;;;;;;;;;5026885;28;20648;-74
2023/10/09 06:52:57;;;;;;;6.07;2.50;;;;;;;;;;5030388;28;20792;-75
2023/10/09 06:55:34;;;;;;;5.47;2.23;;;;;;;;;;5031044;28;20578;-75
2023/10/09 06:58:09;;;;;;;4.13;2.07;;;;;;;;;;5031962;28;20481;-74
2023/10/09 07:01:00;;;;;;;6.40;3.03;;;;;;;;;;5017732;28;20468;-75
2023/10/09 07:03:29;;;;;;;4.00;2.00;;;;;;;;;;5032764;28;20458;-75
2023/10/09 07:06:09;;;;;;;5.13;2.67;;;;;;;;;;5030102;28;20460;-76
2023/10/09 07:08:37;;;;;;;4.30;2.53;;;;;;;;;;5029525;28;20541;-75
2023/10/09 07:13:53;;;;;;;5.03;2.83;;;;;;;;;;5026958;28;20433;-75
2023/10/09 07:16:28;;;;;;;6.40;3.13;;;;;;;;;;5028557;28;20750;-75
2023/10/09 07:19:09;;;;;;;4.93;2.53;;;;;;;;;;5027834;28;20670;-75
2023/10/09 07:21:38;;;;;;;8.43;3.20;;;;;;;;;;5031367;28;20482;-75
2023/10/09 07:24:17;;;;;;;5.20;3.23;;;;;;;;;;5027888;28;20450;-75
2023/10/09 07:26:53;;;;;;;6.33;3.53;;;;;;;;;;5030697;28;20439;-76
2023/10/09 07:29:22;;;;;;;5.80;3.60;;;;;;;;;;5034812;28;20454;-75
2023/10/09 07:32:12;;;;;;;4.73;2.97;;;;;;;;;;5033724;28;20463;-75
2023/10/09 07:34:59;;;;;;;6.20;3.50;;;;;;;;;;5032798;28;20450;-75
2023/10/09 07:37:30;;;;;;;7.03;2.90;;;;;;;;;;5030095;28;20810;-75
2023/10/09 07:39:58;;;;;;;5.80;3.10;;;;;;;;;;5034677;28;20451;-75
2023/10/09 07:42:43;;;;;;;6.80;3.37;;;;;;;;;;5032349;28;20482;-74
2023/10/09 07:45:54;;;;;;;5.30;2.60;;;;;;;;;;5034616;28;20926;-77
2023/10/09 07:48:04;;;;;;;5.23;3.10;;;;;;;;;;5034722;28;20446;-76
2023/10/09 07:50:48;;;;;;;5.73;3.37;;;;;;;;;;5034534;28;20451;-77
2023/10/09 07:53:17;;;;;;;8.30;3.53;;;;;;;;;;5038064;28;20533;-76
2023/10/09 07:55:54;;;;;;;6.17;3.07;;;;;;;;;;5038207;28;20500;-76
2023/10/09 07:58:24;;;;;;;5.40;3.07;;;;;;;;;;5033628;28;20466;-75
2023/10/09 08:01:15;;;;;;;7.30;2.80;;;;;;;;;;5032969;28;20465;-76
2023/10/09 08:03:46;;;;;;;4.60;2.90;;;;;;;;;;5026406;28;20493;-77
2023/10/09 08:11:59;;;;;;;4.80;3.23;;;;;;;;;;5015490;28;20450;-76
2023/10/09 08:14:42;;;;;;;6.50;3.13;;;;;;;;;;5030534;28;20847;-74
2023/10/09 08:17:22;;;;;;;4.03;2.60;;;;;;;;;;5036617;28;20478;-78
2023/10/09 08:19:57;;;;;;;5.80;3.60;;;;;;;;;;5029090;28;20461;-75
2023/10/09 08:25:27;;;;;;;6.70;3.27;;;;;;;;;;5029749;28;20522;-76
2023/10/09 08:27:57;;;;;;;6.43;4.00;;;;;;;;;;5017193;28;20451;-76
2023/10/09 08:30:40;;;;;;;4.90;3.20;;;;;;;;;;5029409;28;20456;-74
2023/10/09 08:33:57;;;;;;;6.00;3.40;;;;;;;;;;5023508;28;20507;-75
2023/10/09 08:36:28;;;;;;;5.90;3.40;;;;;;;;;;5032105;28;20498;-75
2023/10/09 08:38:58;;;;;;;8.33;4.33;;;;;;;;;;5035123;28;20477;-76
2023/10/09 08:41:35;;;;;;;9.87;5.20;;;;;;;;;;5036352;28;20462;-75
2023/10/09 08:44:05;;;;;;;5.67;4.10;;;;;;;;;;5034734;28;20494;-76
2023/10/09 08:46:44;;;;;;;7.10;4.00;;;;;;;;;;5028746;28;20489;-75
2023/10/09 08:49:16;;;;;;;7.97;3.80;;;;;;;;;;5043195;28;20460;-75
2023/10/09 08:51:48;;;;;;;7.77;4.27;;;;;;;;;;5025161;28;20463;-75
2023/10/09 08:54:16;;;;;;;8.33;4.27;;;;;;;;;;5032292;28;20450;-75
2023/10/09 08:56:49;;;;;;;10.03;6.40;;;;;;;;;;5029060;28;20489;-75
2023/10/09 08:59:19;;;;;;;6.53;4.40;;;;;;;;;;5039728;28;20450;-75
2023/10/09 09:01:51;;;;;;;7.97;4.57;;;;;;;;;;5029966;28;20466;-75
2023/10/09 09:04:39;;;;;;;8.83;4.87;;;;;;;;;;5038452;28;20450;-74
2023/10/09 09:07:07;;;;;;;10.63;5.00;;;;;;;;;;5037159;28;20450;-76
2023/10/09 09:09:35;;;;;;;8.37;4.57;;;;;;;;;;5030993;28;20461;-76
2023/10/09 09:12:06;;;;;;;10.93;4.93;;;;;;;;;;5025978;28;20471;-76
2023/10/09 09:14:40;;;;;;;8.30;5.00;;;;;;;;;;5032626;28;20467;-76
2023/10/09 09:17:11;;;;;;;11.77;6.50;;;;;;;;;;5029704;28;20477;-75
2023/10/09 09:19:43;;;;;;;7.43;5.10;;;;;;;;;;5000819;28;20475;-76
2023/10/09 09:22:19;;;;;;;8.60;5.13;;;;;;;;;;5033257;28;20465;-74
2023/10/09 09:25:02;;;;;;;9.27;5.70;;;;;;;;;;5056847;28;20464;-75
2023/10/09 09:27:52;;;;;;;7.73;4.90;;;;;;;;;;5049442;28;20465;-75
2023/10/09 09:30:33;;;;;;;8.77;5.63;;;;;;;;;;5037487;28;20549;-74
2023/10/09 09:33:20;;;;;;;11.40;5.90;;;;;;;;;;5021160;28;20462;-76
2023/10/09 09:36:03;;;;;;;8.90;5.73;;;;;;;;;;5016984;28;20497;-74
2023/10/09 09:38:41;;;;;;;8.17;4.93;;;;;;;;;;5031370;28;20461;-75
2023/10/09 09:41:09;;;;;;;8.47;5.03;;;;;;;;;;5033994;28;20481;-74
2023/10/09 09:43:40;;;;;;;24.47;15.50;;;;;;;;;;5015568;28;21028;-75
2023/10/09 09:46:10;;;;;;;12.10;6.10;;;;;;;;;;5034165;28;21102;-74
2023/10/09 09:48:44;;;;;;;14.50;7.03;;;;;;;;;;5027424;28;20477;-74
2023/10/09 09:51:13;;;;;;;12.50;8.60;;;;;;;;;;5016523;28;20450;-74
2023/10/09 09:53:48;;;;;;;11.40;7.03;;;;;;;;;;5030885;28;20564;-74
2023/10/09 09:56:21;;;;;;;9.30;6.40;;;;;;;;;;5034707;28;20493;-73
2023/10/09 09:58:53;;;;;;;8.60;5.53;;;;;;;;;;5035598;28;20442;-74
2023/10/09 10:01:26;;;;;;;9.23;5.13;;;;;;;;;;5036182;28;20458;-74
2023/10/09 10:03:58;;;;;;;7.20;5.13;;;;;;;;;;5034107;28;20463;-73
2023/10/09 10:06:28;;;;;;;11.13;6.57;;;;;;;;;;5030615;28;20454;-74
2023/10/09 10:08:58;;;;;;;8.80;5.57;;;;;;;;;;5016512;28;20589;-74
2023/10/09 10:11:45;;;;;;;11.33;7.30;;;;;;;;;;5023575;28;20773;-74
2023/10/09 10:14:21;;;;;;;8.33;5.67;;;;;;;;;;5024771;28;20455;-74
2023/10/09 10:17:05;;;;;;;7.47;4.30;;;;;;;;;;5023727;28;20508;-74
2023/10/09 10:19:52;;;;;;;8.37;4.83;;;;;;;;;;5033482;28;20470;-74
2023/10/09 10:22:27;;;;;;;8.73;5.13;;;;;;;;;;5030003;28;21107;-74
2023/10/09 10:24:57;;;;;;;5.73;3.67;;;;;;;;;;5023195;28;20459;-74
2023/10/09 10:27:44;;;;;;;6.40;4.17;;;;;;;;;;5022264;28;21113;-74
2023/10/09 10:30:37;;;;;;;5.93;4.20;;;;;;;;;;5018697;28;20467;-73
2023/10/09 10:33:15;;;;;;;5.20;3.40;;;;;;;;;;5025420;28;20801;-75
2023/10/09 10:35:52;;;;;;;6.17;4.03;;;;;;;;;;5032038;28;20520;-74
2023/10/09 10:38:34;;;;;;;6.00;3.23;;;;;;;;;;5035696;28;20465;-74
2023/10/09 10:41:22;;;;;;;4.40;2.50;;;;;;;;;;5018700;28;20538;-74
2023/10/09 10:44:00;;;;;;;4.93;2.60;;;;;;;;;;5008570;28;20487;-76
2023/10/09 10:46:44;;;;;;;6.03;2.93;;;;;;;;;;5033917;28;20482;-75
2023/10/09 10:49:16;;;;;;;6.03;3.40;;;;;;;;;;5018239;28;20463;-75
2023/10/09 10:51:48;;;;;;;5.30;2.93;;;;;;;;;;5017781;28;20459;-76
2023/10/09 10:57:19;;;;;;;5.40;3.20;;;;;;;;;;5033440;28;20489;-75
2023/10/09 11:00:03;;;;;;;4.90;2.87;;;;;;;;;;5013417;28;20463;-74
2023/10/09 11:02:31;;;;;;;5.10;3.13;;;;;;;;;;5033785;28;20454;-75
2023/10/09 11:05:13;;;;;;;6.00;3.60;;;;;;;;;;5032683;28;20458;-75
2023/10/09 11:07:44;;;;;;;7.90;3.60;;;;;;;;;;5032855;28;20477;-75
2023/10/09 11:10:31;;;;;;;8.80;2.73;;;;;;;;;;5033264;28;20504;-75
2023/10/09 11:16:14;;;;;;;4.70;2.47;;;;;;;;;;5023971;28;20489;-75
2023/10/09 11:21:40;;;;;;;6.87;3.67;;;;;;;;;;5025130;28;20447;-75
2023/10/09 11:24:27;;;;;;;3.70;1.87;;;;;;;;;;5012555;28;20446;-75
2023/10/09 11:26:55;;;;;;;14.90;6.23;;;;;;;;;;5012699;28;20458;-74
2023/10/09 11:29:52;;;;;;;5.33;3.00;;;;;;;;;;5019974;28;21006;-75
2023/10/09 11:32:24;;;;;;;4.60;2.50;;;;;;;;;;5012308;28;20486;-75
2023/10/09 11:34:54;;;;;;;3.37;2.10;;;;;;;;;;5012655;28;20454;-75
2023/10/09 11:37:38;;;;;;;3.97;2.17;;;;;;;;;;5017165;28;21011;-74
2023/10/09 11:40:30;;;;;;;9.73;4.70;;;;;;;;;;5023194;28;20454;-75
2023/10/09 11:43:14;;;;;;;3.13;1.80;;;;;;;;;;5029180;28;20465;-74
2023/10/09 11:45:54;;;;;;;4.07;2.20;;;;;;;;;;5012998;28;20577;-74
2023/10/09 11:48:33;;;;;;;5.30;3.03;;;;;;;;;;5013533;28;20458;-75
2023/10/09 11:51:18;;;;;;;5.60;2.57;;;;;;;;;;5012817;28;20459;-74
2023/10/09 11:56:41;;;;;;;6.20;3.20;;;;;;;;;;5011216;28;20471;-75
2023/10/09 12:04:30;;;;;;;3.07;1.37;;;;;;;;;;5400470;22;20483;-75
2023/10/09 12:07:06;;;;;;;4.00;2.63;;;;;;;;;;5009051;28;20447;-75
2023/10/09 12:09:34;;;;;;;3.43;1.70;;;;;;;;;;5013984;28;20459;-75
2023/10/09 12:12:02;;;;;;;4.37;2.60;;;;;;;;;;5015029;28;20451;-75
2023/10/09 12:14:33;;;;;;;5.63;2.20;;;;;;;;;;5012874;28;20454;-75
2023/10/09 12:17:05;;;;;;;3.47;2.00;;;;;;;;;;5012942;28;21271;-74
2023/10/09 12:19:34;;;;;;;6.47;3.23;;;;;;;;;;5010910;28;20559;-76
2023/10/09 12:22:03;;;;;;;3.40;2.10;;;;;;;;;;5011402;28;20450;-75
2023/10/09 12:24:31;;;;;;;5.60;1.93;;;;;;;;;;5011519;28;20733;-75
2023/10/09 12:26:58;;;;;;;7.00;3.20;;;;;;;;;;5007197;28;20510;-75
2023/10/09 12:29:29;;;;;;;3.37;1.60;;;;;;;;;;4992686;28;20487;-75
2023/10/09 12:32:04;;;;;;;4.13;2.10;;;;;;;;;;5007332;28;20474;-75
2023/10/09 12:34:38;;;;;;;3.90;1.90;;;;;;;;;;5049261;28;20546;-75
2023/10/09 12:37:06;;;;;;;3.90;2.50;;;;;;;;;;5052377;28;20548;-74
2023/10/09 12:39:34;;;;;;;3.67;1.73;;;;;;;;;;5050777;28;20536;-74
2023/10/09 12:42:06;;;;;;;3.57;1.77;;;;;;;;;;5049314;28;20454;-76
2023/10/09 12:44:38;;;;;;;7.17;3.80;;;;;;;;;;5033605;28;20509;-75
2023/10/09 12:47:06;;;;;;;7.70;3.20;;;;;;;;;;5044547;28;20450;-76
2023/10/09 12:49:38;;;;;;;3.37;1.73;;;;;;;;;;5052871;28;20478;-75
2023/10/09 12:52:15;;;;;;;6.30;1.87;;;;;;;;;;5039879;28;20473;-75
2023/10/09 12:54:43;;;;;;;3.33;1.73;;;;;;;;;;5029428;28;20465;-75
2023/10/09 12:57:15;;;;;;;3.77;1.80;;;;;;;;;;5029637;28;20543;-74
2023/10/09 12:59:45;;;;;;;3.97;1.70;;;;;;;;;;5024389;28;20471;-75
2023/10/09 13:02:13;;;;;;;8.97;4.60;;;;;;;;;;5027033;28;20881;-74
2023/10/09 13:04:42;;;;;;;6.10;3.47;;;;;;;;;;5019143;28;20497;-75
2023/10/09 13:07:12;;;;;;;3.13;1.93;;;;;;;;;;5042763;28;20503;-76
2023/10/09 13:09:43;;;;;;;3.47;1.43;;;;;;;;;;5021107;28;20541;-76
2023/10/09 13:12:17;;;;;;;14.40;8.20;;;;;;;;;;5028521;28;20462;-75
2023/10/09 13:14:49;;;;;;;13.10;6.13;;;;;;;;;;5030073;28;20448;-74
2023/10/09 13:17:20;;;;;;;3.13;1.63;;;;;;;;;;5029164;28;20522;-75
2023/10/09 13:19:50;;;;;;;4.90;2.90;;;;;;;;;;5031158;28;21100;-76
2023/10/09 13:22:17;;;;;;;5.03;2.10;;;;;;;;;;5025817;28;20463;-76
2023/10/09 13:24:48;;;;;;;3.43;2.40;;;;;;;;;;5036163;28;21046;-75
2023/10/09 13:27:21;;;;;;;3.60;2.40;;;;;;;;;;5010763;28;20466;-76
2023/10/09 13:29:49;;;;;;;3.20;1.60;;;;;;;;;;5026901;28;21018;-75
2023/10/09 13:32:18;;;;;;;3.50;1.63;;;;;;;;;;5029462;28;20454;-75
2023/10/09 13:34:46;;;;;;;3.73;2.00;;;;;;;;;;5017356;28;20470;-76
2023/10/09 13:37:21;;;;;;;2.93;1.40;;;;;;;;;;5018228;28;20983;-75
2023/10/09 13:39:53;;;;;;;7.63;3.60;;;;;;;;;;5032943;28;20467;-75
2023/10/09 13:49:06;;;;;;;4.07;2.47;;;;;;;;;;5017697;28;20520;-75
2023/10/09 13:51:45;;;;;;;4.93;2.50;;;;;;;;;;5020423;28;20481;-75
2023/10/09 13:59:27;;;;;;;6.23;3.77;;;;;;;;;;5477365;23;20463;-76
2023/10/09 14:02:09;;;;;;;4.50;2.90;;;;;;;;;;5017574;28;20435;-76
2023/10/09 14:04:51;;;;;;;3.83;2.60;;;;;;;;;;5017692;28;20488;-76
2023/10/09 14:07:20;;;;;;;5.53;3.80;;;;;;;;;;5017656;28;20499;-77
2023/10/09 14:13:12;;;;;;;4.80;3.23;;;;;;;;;;5009305;28;20443;-75
2023/10/09 14:15:54;;;;;;;5.53;3.50;;;;;;;;;;4937039;29;20485;-74
2023/10/09 14:18:43;;;;;;;4.23;2.53;;;;;;;;;;4996429;28;20510;-76
2023/10/09 14:21:16;;;;;;;12.50;5.10;;;;;;;;;;5038275;28;20532;-77
2023/10/09 14:23:48;;;;;;;11.80;6.97;;;;;;;;;;5037495;28;21053;-76
2023/10/09 14:30:22;;;;;;;;;;;;;;;;;;;;;
2023/10/09 14:41:51;;;;;;;4.50;3.10;;;;;;;;;;5049111;23;20790;-76
2023/10/09 14:44:20;;;;;;;5.37;2.73;;;;;;;;;;5026339;28;20498;-75
2023/10/09 14:46:49;;;;;;;3.97;2.67;;;;;;;;;;5014676;28;21143;-76
2023/10/09 14:49:21;;;;;;;3.70;2.47;;;;;;;;;;5020081;28;20839;-75
2023/10/09 14:51:50;;;;;;;5.30;3.57;;;;;;;;;;5022302;28;20545;-74
2023/10/09 14:54:19;;;;;;;5.70;3.20;;;;;;;;;;5025117;28;20466;-75
2023/10/09 14:56:46;;;;;;;4.33;2.90;;;;;;;;;;5014801;28;20478;-75
2023/10/09 14:59:19;;;;;;;5.30;4.00;;;;;;;;;;5027023;28;20744;-75
2023/10/09 15:01:47;;;;;;;5.43;2.90;;;;;;;;;;5013761;28;20578;-74
2023/10/09 15:04:15;;;;;;;5.97;4.20;;;;;;;;;;5008387;28;21111;-74
2023/10/09 15:06:44;;;;;;;6.20;3.60;;;;;;;;;;5010805;28;20469;-75
2023/10/09 15:09:21;;;;;;;5.97;3.33;;;;;;;;;;5030950;28;20925;-75
2023/10/09 15:11:49;;;;;;;5.93;3.90;;;;;;;;;;5031258;28;20458;-75
2023/10/09 15:14:24;;;;;;;5.37;3.70;;;;;;;;;;5026661;28;20561;-74
2023/10/09 15:16:56;;;;;;;3.70;2.53;;;;;;;;;;5031285;28;20624;-74
2023/10/09 15:19:29;;;;;;;3.97;2.70;;;;;;;;;;5030264;28;20449;-74
2023/10/09 15:21:58;;;;;;;5.90;3.90;;;;;;;;;;5029138;28;20898;-75
2023/10/09 15:24:27;;;;;;;7.87;5.80;;;;;;;;;;5027354;28;20454;-75
2023/10/09 15:26:58;;;;;;;8.57;5.00;;;;;;;;;;5027613;28;20477;-75
2023/10/09 15:29:30;;;;;;;6.77;4.43;;;;;;;;;;5030646;28;20465;-74
2023/10/09 15:32:00;;;;;;;5.90;4.30;;;;;;;;;;5029488;28;20490;-75
2023/10/09 15:34:28;;;;;;;5.87;4.40;;;;;;;;;;5028724;28;20454;-75
2023/10/09 15:36:55;;;;;;;7.60;4.50;;;;;;;;;;5031468;28;20520;-75
2023/10/09 15:39:23;;;;;;;7.37;4.50;;;;;;;;;;5030792;28;21195;-74
2023/10/09 15:41:53;;;;;;;4.90;3.83;;;;;;;;;;5033590;28;20502;-75
2023/10/09 15:44:24;;;;;;;6.83;4.93;;;;;;;;;;5032809;28;20537;-74
2023/10/09 15:46:59;;;;;;;6.93;4.60;;;;;;;;;;5033956;28;20875;-75
2023/10/09 15:49:27;;;;;;;6.50;3.87;;;;;;;;;;5032670;28;20931;-74
2023/10/09 15:51:59;;;;;;;5.97;4.10;;;;;;;;;;5030398;28;20536;-74
2023/10/09 15:54:27;;;;;;;6.80;4.57;;;;;;;;;;5030292;28;20465;-73
2023/10/09 15:56:55;;;;;;;7.80;5.27;;;;;;;;;;5017790;28;20471;-75
2023/10/09 15:59:24;;;;;;;8.97;5.40;;;;;;;;;;5008679;28;20498;-74
2023/10/09 16:01:53;;;;;;;13.67;7.90;;;;;;;;;;5004757;28;20684;-74
2023/10/09 16:04:21;;;;;;;8.13;6.07;;;;;;;;;;5004752;28;20483;-75
2023/10/09 16:06:52;;;;;;;7.80;5.10;;;;;;;;;;5009674;28;20451;-74
2023/10/09 16:09:21;;;;;;;7.73;4.47;;;;;;;;;;5011307;28;20582;-75
2023/10/09 16:11:48;;;;;;;6.97;3.80;;;;;;;;;;5026693;28;20642;-76
2023/10/09 16:14:16;;;;;;;6.53;4.33;;;;;;;;;;5022968;28;20454;-75
2023/10/09 16:16:45;;;;;;;6.73;3.97;;;;;;;;;;5024728;28;21048;-74
2023/10/09 16:19:15;;;;;;;7.50;4.70;;;;;;;;;;5029773;28;20545;-75
2023/10/09 16:21:43;;;;;;;13.10;8.33;;;;;;;;;;5023384;28;20534;-74
2023/10/09 16:24:10;;;;;;;7.60;4.53;;;;;;;;;;5019521;28;21079;-73
2023/10/09 16:26:41;;;;;;;5.10;3.57;;;;;;;;;;5015731;28;20459;-74
2023/10/09 16:29:09;;;;;;;4.90;3.87;;;;;;;;;;5011433;28;20453;-75
2023/10/09 16:31:42;;;;;;;7.03;5.27;;;;;;;;;;5020143;28;20497;-75
2023/10/09 16:34:13;;;;;;;31.17;21.40;;;;;;;;;;5020528;28;20546;-75
2023/10/09 16:36:43;;;;;;;11.20;8.33;;;;;;;;;;5025322;28;20476;-73
2023/10/09 16:39:18;;;;;;;9.43;6.43;;;;;;;;;;5028321;28;20593;-72
2023/10/09 16:41:45;;;;;;;8.37;6.10;;;;;;;;;;5014980;28;21139;-74
2023/10/09 16:44:16;;;;;;;6.93;5.60;;;;;;;;;;5010781;28;20454;-74
2023/10/09 16:46:44;;;;;;;10.37;6.70;;;;;;;;;;5022898;28;20459;-74
2023/10/09 16:49:13;;;;;;;8.30;5.70;;;;;;;;;;5022948;28;20454;-75
2023/10/09 16:51:42;;;;;;;10.43;6.70;;;;;;;;;;5012363;28;20463;-75
2023/10/09 16:54:14;;;;;;;6.40;4.70;;;;;;;;;;5024067;28;20464;-76
2023/10/09 16:56:42;;;;;;;7.50;5.90;;;;;;;;;;5015924;28;20450;-74
2023/10/09 16:59:13;;;;;;;7.53;5.20;;;;;;;;;;5022208;28;20474;-75
2023/10/09 17:01:41;;;;;;;7.10;5.00;;;;;;;;;;5026915;28;20451;-75
2023/10/09 17:04:11;;;;;;;6.27;4.97;;;;;;;;;;5026588;28;20571;-75